sensor_id;sensor_type;location;lat;lon;timestamp;P1;durP1;ratioP1;P2;durP2;ratioP2
5662;SDS011;2854;42.692;23.364;2023-01-10T00:00:29;11.00;;;5.37;;
5662;SDS011;2854;42.692;23.364;2023-01-10T00:02:59;10.63;;;5.27;;
5662;SDS011;2854;42.692;23.364;2023-01-10T00:05:24;8.63;;;5.20;;
5662;SDS011;2854;42.692;23.364;2023-01-10T00:07:49;14.07;;;8.17;;
5662;SDS011;2854;42.692;23.364;2023-01-10T00:10:14;15.87;;;7.27;;
5662;SDS011;2854;42.692;23.364;2023-01-10T00:12:40;12.57;;;6.03;;
5662;SDS011;2854;42.692;23.364;2023-01-10T00:15:24;6.30;;;5.67;;
5662;SDS011;2854;42.692;23.364;2023-01-10T00:17:49;8.87;;;5.00;;
5662;SDS011;2854;42.692;23.364;2023-01-10T00:20:14;7.87;;;6.13;;
5662;SDS011;2854;42.692;23.364;2023-01-10T00:22:40;10.73;;;6.07;;
5662;SDS011;2854;42.692;23.364;2023-01-10T00:25:05;7.90;;;5.17;;
5662;SDS011;2854;42.692;23.364;2023-01-10T00:27:30;13.97;;;5.90;;
5662;SDS011;2854;42.692;23.364;2023-01-10T00:29:55;8.27;;;4.97;;
5662;SDS011;2854;42.692;23.364;2023-01-10T00:32:24;8.27;;;4.17;;
5662;SDS011;2854;42.692;23.364;2023-01-10T00:34:50;4.80;;;3.90;;
5662;SDS011;2854;42.692;23.364;2023-01-10T00:37:15;8.00;;;5.70;;
5662;SDS011;2854;42.692;23.364;2023-01-10T00:39:40;14.27;;;6.23;;
5662;SDS011;2854;42.692;23.364;2023-01-10T00:42:05;11.80;;;6.07;;
5662;SDS011;2854;42.692;23.364;2023-01-10T00:44:49;11.50;;;5.50;;
5662;SDS011;2854;42.692;23.364;2023-01-10T00:47:15;9.50;;;5.37;;
5662;SDS011;2854;42.692;23.364;2023-01-10T00:49:40;5.90;;;4.37;;
5662;SDS011;2854;42.692;23.364;2023-01-10T00:52:06;6.47;;;3.77;;
5662;SDS011;2854;42.692;23.364;2023-01-10T00:54:31;8.83;;;5.47;;
5662;SDS011;2854;42.692;23.364;2023-01-10T00:56:56;15.33;;;5.70;;
5662;SDS011;2854;42.692;23.364;2023-01-10T00:59:22;7.87;;;4.97;;
5662;SDS011;2854;42.692;23.364;2023-01-10T01:01:48;6.67;;;4.67;;
5662;SDS011;2854;42.692;23.364;2023-01-10T01:04:13;9.87;;;6.07;;
5662;SDS011;2854;42.692;23.364;2023-01-10T01:06:38;4.20;;;3.90;;
5662;SDS011;2854;42.692;23.364;2023-01-10T01:09:04;7.70;;;5.37;;
5662;SDS011;2854;42.692;23.364;2023-01-10T01:11:29;6.43;;;4.37;;
5662;SDS011;2854;42.692;23.364;2023-01-10T01:13:54;5.30;;;4.27;;
5662;SDS011;2854;42.692;23.364;2023-01-10T01:16:19;6.93;;;5.43;;
5662;SDS011;2854;42.692;23.364;2023-01-10T01:18:45;5.20;;;4.70;;
5662;SDS011;2854;42.692;23.364;2023-01-10T01:21:10;8.80;;;5.53;;
5662;SDS011;2854;42.692;23.364;2023-01-10T01:23:35;5.77;;;3.80;;
5662;SDS011;2854;42.692;23.364;2023-01-10T01:26:01;11.03;;;4.07;;
5662;SDS011;2854;42.692;23.364;2023-01-10T01:28:26;5.47;;;3.80;;
5662;SDS011;2854;42.692;23.364;2023-01-10T01:30:52;10.80;;;4.70;;
5662;SDS011;2854;42.692;23.364;2023-01-10T01:33:17;8.03;;;4.40;;
5662;SDS011;2854;42.692;23.364;2023-01-10T01:35:43;8.63;;;5.63;;
5662;SDS011;2854;42.692;23.364;2023-01-10T01:38:09;5.40;;;4.97;;
5662;SDS011;2854;42.692;23.364;2023-01-10T01:40:34;9.97;;;5.00;;
5662;SDS011;2854;42.692;23.364;2023-01-10T01:43:00;6.93;;;5.33;;
5662;SDS011;2854;42.692;23.364;2023-01-10T01:45:30;7.83;;;4.10;;
5662;SDS011;2854;42.692;23.364;2023-01-10T01:52:55;7.33;;;3.90;;
5662;SDS011;2854;42.692;23.364;2023-01-10T01:55:22;5.97;;;3.93;;
5662;SDS011;2854;42.692;23.364;2023-01-10T01:57:49;13.17;;;5.77;;
5662;SDS011;2854;42.692;23.364;2023-01-10T02:00:15;5.80;;;3.87;;
5662;SDS011;2854;42.692;23.364;2023-01-10T02:02:43;6.13;;;4.13;;
5662;SDS011;2854;42.692;23.364;2023-01-10T02:05:11;12.53;;;5.03;;
5662;SDS011;2854;42.692;23.364;2023-01-10T02:07:38;3.57;;;3.27;;
5662;SDS011;2854;42.692;23.364;2023-01-10T02:10:05;11.33;;;6.73;;
5662;SDS011;2854;42.692;23.364;2023-01-10T02:12:33;13.93;;;5.70;;
5662;SDS011;2854;42.692;23.364;2023-01-10T02:14:59;8.33;;;4.80;;
5662;SDS011;2854;42.692;23.364;2023-01-10T02:17:24;11.47;;;6.03;;
5662;SDS011;2854;42.692;23.364;2023-01-10T02:19:50;8.00;;;5.17;;
5662;SDS011;2854;42.692;23.364;2023-01-10T02:27:11;10.53;;;4.93;;
5662;SDS011;2854;42.692;23.364;2023-01-10T02:32:37;9.13;;;5.37;;
5662;SDS011;2854;42.692;23.364;2023-01-10T02:35:07;6.50;;;4.70;;
5662;SDS011;2854;42.692;23.364;2023-01-10T02:37:44;8.97;;;5.77;;
5662;SDS011;2854;42.692;23.364;2023-01-10T02:42:41;4.80;;;4.10;;
5662;SDS011;2854;42.692;23.364;2023-01-10T02:45:45;10.00;;;4.53;;
5662;SDS011;2854;42.692;23.364;2023-01-10T02:48:01;9.20;;;5.67;;
5662;SDS011;2854;42.692;23.364;2023-01-10T02:52:56;5.47;;;4.80;;
5662;SDS011;2854;42.692;23.364;2023-01-10T02:55:23;5.97;;;3.83;;
5662;SDS011;2854;42.692;23.364;2023-01-10T02:57:55;8.73;;;4.53;;
5662;SDS011;2854;42.692;23.364;2023-01-10T03:00:26;6.00;;;4.73;;
5662;SDS011;2854;42.692;23.364;2023-01-10T03:07:52;6.30;;;3.83;;
5662;SDS011;2854;42.692;23.364;2023-01-10T03:10:31;8.10;;;5.03;;
5662;SDS011;2854;42.692;23.364;2023-01-10T03:13:08;4.60;;;3.97;;
5662;SDS011;2854;42.692;23.364;2023-01-10T03:15:35;7.90;;;4.20;;
5662;SDS011;2854;42.692;23.364;2023-01-10T03:18:03;7.03;;;4.80;;
5662;SDS011;2854;42.692;23.364;2023-01-10T03:20:31;4.77;;;4.00;;
5662;SDS011;2854;42.692;23.364;2023-01-10T03:22:57;5.23;;;4.73;;
5662;SDS011;2854;42.692;23.364;2023-01-10T03:25:25;7.70;;;3.97;;
5662;SDS011;2854;42.692;23.364;2023-01-10T03:30:47;3.67;;;3.33;;
5662;SDS011;2854;42.692;23.364;2023-01-10T03:33:15;11.23;;;5.43;;
5662;SDS011;2854;42.692;23.364;2023-01-10T03:38:08;7.20;;;4.23;;
5662;SDS011;2854;42.692;23.364;2023-01-10T03:41:20;5.17;;;4.67;;
5662;SDS011;2854;42.692;23.364;2023-01-10T03:43:31;5.47;;;3.97;;
5662;SDS011;2854;42.692;23.364;2023-01-10T03:46:26;5.73;;;4.90;;
5662;SDS011;2854;42.692;23.364;2023-01-10T03:48:54;5.83;;;4.20;;
5662;SDS011;2854;42.692;23.364;2023-01-10T03:51:21;5.43;;;4.30;;
5662;SDS011;2854;42.692;23.364;2023-01-10T03:53:47;17.00;;;5.37;;
5662;SDS011;2854;42.692;23.364;2023-01-10T03:56:13;7.63;;;4.23;;
5662;SDS011;2854;42.692;23.364;2023-01-10T03:58:38;8.10;;;5.77;;
5662;SDS011;2854;42.692;23.364;2023-01-10T04:01:04;15.77;;;7.47;;
5662;SDS011;2854;42.692;23.364;2023-01-10T04:03:29;12.80;;;7.63;;
5662;SDS011;2854;42.692;23.364;2023-01-10T04:05:54;6.33;;;5.00;;
5662;SDS011;2854;42.692;23.364;2023-01-10T04:08:20;10.60;;;6.03;;
5662;SDS011;2854;42.692;23.364;2023-01-10T04:10:47;8.33;;;5.40;;
5662;SDS011;2854;42.692;23.364;2023-01-10T04:13:12;7.60;;;5.20;;
5662;SDS011;2854;42.692;23.364;2023-01-10T04:15:38;5.83;;;4.50;;
5662;SDS011;2854;42.692;23.364;2023-01-10T04:18:03;5.40;;;3.73;;
5662;SDS011;2854;42.692;23.364;2023-01-10T04:20:28;3.80;;;3.37;;
5662;SDS011;2854;42.692;23.364;2023-01-10T04:22:54;7.50;;;5.17;;
5662;SDS011;2854;42.692;23.364;2023-01-10T04:25:22;5.90;;;4.53;;
5662;SDS011;2854;42.692;23.364;2023-01-10T04:27:48;4.70;;;3.80;;
5662;SDS011;2854;42.692;23.364;2023-01-10T04:30:13;6.80;;;4.97;;
5662;SDS011;2854;42.692;23.364;2023-01-10T04:32:39;4.90;;;4.37;;
5662;SDS011;2854;42.692;23.364;2023-01-10T04:35:04;4.93;;;4.40;;
5662;SDS011;2854;42.692;23.364;2023-01-10T04:37:29;6.70;;;4.50;;
5662;SDS011;2854;42.692;23.364;2023-01-10T04:39:54;6.97;;;4.37;;
5662;SDS011;2854;42.692;23.364;2023-01-10T04:42:20;6.07;;;3.97;;
5662;SDS011;2854;42.692;23.364;2023-01-10T04:44:45;9.27;;;6.17;;
5662;SDS011;2854;42.692;23.364;2023-01-10T04:47:10;17.23;;;8.40;;
5662;SDS011;2854;42.692;23.364;2023-01-10T04:49:36;9.73;;;5.40;;
5662;SDS011;2854;42.692;23.364;2023-01-10T04:52:01;37.40;;;15.93;;
5662;SDS011;2854;42.692;23.364;2023-01-10T04:54:26;12.53;;;6.67;;
5662;SDS011;2854;42.692;23.364;2023-01-10T04:56:51;8.27;;;5.40;;
5662;SDS011;2854;42.692;23.364;2023-01-10T04:59:17;5.73;;;4.80;;
5662;SDS011;2854;42.692;23.364;2023-01-10T05:01:42;7.00;;;4.20;;
5662;SDS011;2854;42.692;23.364;2023-01-10T05:04:07;7.20;;;4.70;;
5662;SDS011;2854;42.692;23.364;2023-01-10T05:06:33;11.10;;;6.13;;
5662;SDS011;2854;42.692;23.364;2023-01-10T05:08:58;7.30;;;5.67;;
5662;SDS011;2854;42.692;23.364;2023-01-10T05:11:23;8.20;;;5.40;;
5662;SDS011;2854;42.692;23.364;2023-01-10T05:13:49;10.40;;;6.70;;
5662;SDS011;2854;42.692;23.364;2023-01-10T05:16:14;16.80;;;8.73;;
5662;SDS011;2854;42.692;23.364;2023-01-10T05:18:40;9.47;;;5.00;;
5662;SDS011;2854;42.692;23.364;2023-01-10T05:21:07;16.00;;;8.00;;
5662;SDS011;2854;42.692;23.364;2023-01-10T05:23:32;11.00;;;7.70;;
5662;SDS011;2854;42.692;23.364;2023-01-10T05:26:03;25.13;;;8.83;;
5662;SDS011;2854;42.692;23.364;2023-01-10T05:28:29;17.13;;;6.40;;
5662;SDS011;2854;42.692;23.364;2023-01-10T05:30:54;16.17;;;8.00;;
5662;SDS011;2854;42.692;23.364;2023-01-10T05:33:19;14.23;;;8.47;;
5662;SDS011;2854;42.692;23.364;2023-01-10T05:35:44;17.13;;;9.27;;
5662;SDS011;2854;42.692;23.364;2023-01-10T05:38:10;19.40;;;9.27;;
5662;SDS011;2854;42.692;23.364;2023-01-10T05:40:35;15.70;;;8.30;;
5662;SDS011;2854;42.692;23.364;2023-01-10T05:43:00;13.63;;;5.97;;
5662;SDS011;2854;42.692;23.364;2023-01-10T05:45:25;8.63;;;6.13;;
5662;SDS011;2854;42.692;23.364;2023-01-10T05:47:51;12.73;;;6.87;;
5662;SDS011;2854;42.692;23.364;2023-01-10T05:50:16;10.87;;;8.50;;
5662;SDS011;2854;42.692;23.364;2023-01-10T05:52:41;30.97;;;14.30;;
5662;SDS011;2854;42.692;23.364;2023-01-10T05:55:07;12.17;;;5.53;;
5662;SDS011;2854;42.692;23.364;2023-01-10T05:57:32;18.07;;;8.83;;
5662;SDS011;2854;42.692;23.364;2023-01-10T05:59:57;11.73;;;7.20;;
5662;SDS011;2854;42.692;23.364;2023-01-10T06:02:22;12.27;;;6.40;;
5662;SDS011;2854;42.692;23.364;2023-01-10T06:04:50;15.70;;;7.03;;
5662;SDS011;2854;42.692;23.364;2023-01-10T06:07:16;4.83;;;4.23;;
5662;SDS011;2854;42.692;23.364;2023-01-10T06:09:41;7.67;;;5.10;;
5662;SDS011;2854;42.692;23.364;2023-01-10T06:12:06;12.47;;;6.07;;
5662;SDS011;2854;42.692;23.364;2023-01-10T06:14:32;14.13;;;6.83;;
5662;SDS011;2854;42.692;23.364;2023-01-10T06:16:57;16.70;;;5.87;;
5662;SDS011;2854;42.692;23.364;2023-01-10T06:19:22;27.73;;;11.10;;
5662;SDS011;2854;42.692;23.364;2023-01-10T06:21:47;13.73;;;8.03;;
5662;SDS011;2854;42.692;23.364;2023-01-10T06:24:13;7.67;;;5.93;;
5662;SDS011;2854;42.692;23.364;2023-01-10T06:26:38;14.43;;;8.07;;
5662;SDS011;2854;42.692;23.364;2023-01-10T06:29:03;18.57;;;9.50;;
5662;SDS011;2854;42.692;23.364;2023-01-10T06:31:29;9.13;;;6.13;;
5662;SDS011;2854;42.692;23.364;2023-01-10T06:33:54;17.27;;;8.70;;
5662;SDS011;2854;42.692;23.364;2023-01-10T06:36:19;11.07;;;6.80;;
5662;SDS011;2854;42.692;23.364;2023-01-10T06:38:44;18.90;;;8.07;;
5662;SDS011;2854;42.692;23.364;2023-01-10T06:41:10;20.33;;;10.70;;
5662;SDS011;2854;42.692;23.364;2023-01-10T06:43:41;21.90;;;10.47;;
5662;SDS011;2854;42.692;23.364;2023-01-10T06:46:07;15.00;;;7.10;;
5662;SDS011;2854;42.692;23.364;2023-01-10T06:48:34;9.07;;;6.00;;
5662;SDS011;2854;42.692;23.364;2023-01-10T06:50:59;14.20;;;6.97;;
5662;SDS011;2854;42.692;23.364;2023-01-10T06:53:24;22.90;;;8.30;;
5662;SDS011;2854;42.692;23.364;2023-01-10T06:55:50;25.00;;;11.47;;
5662;SDS011;2854;42.692;23.364;2023-01-10T06:58:15;14.07;;;6.60;;
5662;SDS011;2854;42.692;23.364;2023-01-10T07:00:42;12.00;;;7.87;;
5662;SDS011;2854;42.692;23.364;2023-01-10T07:03:07;11.13;;;6.07;;
5662;SDS011;2854;42.692;23.364;2023-01-10T07:05:33;23.63;;;7.37;;
5662;SDS011;2854;42.692;23.364;2023-01-10T07:07:58;12.20;;;6.80;;
5662;SDS011;2854;42.692;23.364;2023-01-10T07:10:25;10.43;;;7.00;;
5662;SDS011;2854;42.692;23.364;2023-01-10T07:12:50;8.53;;;5.13;;
5662;SDS011;2854;42.692;23.364;2023-01-10T07:15:18;8.60;;;5.80;;
5662;SDS011;2854;42.692;23.364;2023-01-10T07:17:43;10.13;;;5.33;;
5662;SDS011;2854;42.692;23.364;2023-01-10T07:20:08;7.23;;;4.60;;
5662;SDS011;2854;42.692;23.364;2023-01-10T07:22:34;9.77;;;6.10;;
5662;SDS011;2854;42.692;23.364;2023-01-10T07:24:59;11.80;;;6.03;;
5662;SDS011;2854;42.692;23.364;2023-01-10T07:27:24;8.27;;;5.27;;
5662;SDS011;2854;42.692;23.364;2023-01-10T07:29:50;9.20;;;6.23;;
5662;SDS011;2854;42.692;23.364;2023-01-10T07:32:15;5.63;;;5.13;;
5662;SDS011;2854;42.692;23.364;2023-01-10T07:34:40;19.53;;;7.80;;
5662;SDS011;2854;42.692;23.364;2023-01-10T07:37:05;24.50;;;9.50;;
5662;SDS011;2854;42.692;23.364;2023-01-10T07:39:31;13.63;;;7.40;;
5662;SDS011;2854;42.692;23.364;2023-01-10T07:41:56;14.70;;;7.03;;
5662;SDS011;2854;42.692;23.364;2023-01-10T07:44:21;7.57;;;6.13;;
5662;SDS011;2854;42.692;23.364;2023-01-10T07:46:48;11.50;;;6.93;;
5662;SDS011;2854;42.692;23.364;2023-01-10T07:49:13;15.03;;;7.07;;
5662;SDS011;2854;42.692;23.364;2023-01-10T07:51:38;14.83;;;8.97;;
5662;SDS011;2854;42.692;23.364;2023-01-10T07:54:04;18.67;;;8.97;;
5662;SDS011;2854;42.692;23.364;2023-01-10T07:56:29;16.90;;;8.97;;
5662;SDS011;2854;42.692;23.364;2023-01-10T07:58:55;17.80;;;7.77;;
5662;SDS011;2854;42.692;23.364;2023-01-10T08:01:20;12.00;;;7.33;;
5662;SDS011;2854;42.692;23.364;2023-01-10T08:03:45;15.90;;;9.33;;
5662;SDS011;2854;42.692;23.364;2023-01-10T08:06:11;18.57;;;10.10;;
5662;SDS011;2854;42.692;23.364;2023-01-10T08:08:36;21.20;;;10.87;;
5662;SDS011;2854;42.692;23.364;2023-01-10T08:11:01;15.90;;;8.50;;
5662;SDS011;2854;42.692;23.364;2023-01-10T08:13:27;14.00;;;7.83;;
5662;SDS011;2854;42.692;23.364;2023-01-10T08:15:52;14.03;;;7.13;;
5662;SDS011;2854;42.692;23.364;2023-01-10T08:18:18;12.30;;;7.63;;
5662;SDS011;2854;42.692;23.364;2023-01-10T08:20:44;14.30;;;8.23;;
5662;SDS011;2854;42.692;23.364;2023-01-10T08:23:12;13.33;;;7.00;;
5662;SDS011;2854;42.692;23.364;2023-01-10T08:25:37;12.30;;;7.03;;
5662;SDS011;2854;42.692;23.364;2023-01-10T08:28:02;15.87;;;6.83;;
5662;SDS011;2854;42.692;23.364;2023-01-10T08:30:27;12.77;;;7.80;;
5662;SDS011;2854;42.692;23.364;2023-01-10T08:32:53;18.67;;;9.13;;
5662;SDS011;2854;42.692;23.364;2023-01-10T08:35:18;19.80;;;6.77;;
5662;SDS011;2854;42.692;23.364;2023-01-10T08:37:44;16.17;;;7.50;;
5662;SDS011;2854;42.692;23.364;2023-01-10T08:40:09;17.80;;;8.90;;
5662;SDS011;2854;42.692;23.364;2023-01-10T08:42:35;18.60;;;11.23;;
5662;SDS011;2854;42.692;23.364;2023-01-10T08:45:00;23.33;;;9.40;;
5662;SDS011;2854;42.692;23.364;2023-01-10T08:47:26;21.13;;;11.20;;
5662;SDS011;2854;42.692;23.364;2023-01-10T08:49:51;20.77;;;10.03;;
5662;SDS011;2854;42.692;23.364;2023-01-10T08:52:17;30.37;;;15.60;;
5662;SDS011;2854;42.692;23.364;2023-01-10T08:54:42;21.57;;;10.63;;
5662;SDS011;2854;42.692;23.364;2023-01-10T08:57:07;24.97;;;11.97;;
5662;SDS011;2854;42.692;23.364;2023-01-10T08:59:33;23.63;;;11.83;;
5662;SDS011;2854;42.692;23.364;2023-01-10T09:01:58;35.63;;;13.00;;
5662;SDS011;2854;42.692;23.364;2023-01-10T09:04:26;32.60;;;13.73;;
5662;SDS011;2854;42.692;23.364;2023-01-10T09:06:53;29.83;;;14.03;;
5662;SDS011;2854;42.692;23.364;2023-01-10T09:09:19;21.80;;;12.13;;
5662;SDS011;2854;42.692;23.364;2023-01-10T09:11:44;16.67;;;9.97;;
5662;SDS011;2854;42.692;23.364;2023-01-10T09:14:09;32.23;;;13.20;;
5662;SDS011;2854;42.692;23.364;2023-01-10T09:16:35;22.30;;;12.40;;
5662;SDS011;2854;42.692;23.364;2023-01-10T09:19:00;32.80;;;15.43;;
5662;SDS011;2854;42.692;23.364;2023-01-10T09:21:26;18.60;;;10.07;;
5662;SDS011;2854;42.692;23.364;2023-01-10T09:23:51;22.20;;;11.47;;
5662;SDS011;2854;42.692;23.364;2023-01-10T09:26:16;22.87;;;13.00;;
5662;SDS011;2854;42.692;23.364;2023-01-10T09:28:42;18.03;;;11.77;;
5662;SDS011;2854;42.692;23.364;2023-01-10T09:31:07;21.80;;;11.80;;
5662;SDS011;2854;42.692;23.364;2023-01-10T09:33:33;21.40;;;11.07;;
5662;SDS011;2854;42.692;23.364;2023-01-10T09:35:58;14.43;;;9.80;;
5662;SDS011;2854;42.692;23.364;2023-01-10T09:38:23;17.13;;;8.87;;
5662;SDS011;2854;42.692;23.364;2023-01-10T09:48:30;8.70;;;5.80;;
5662;SDS011;2854;42.692;23.364;2023-01-10T09:51:03;14.43;;;7.77;;
5662;SDS011;2854;42.692;23.364;2023-01-10T09:53:33;8.23;;;6.50;;
5662;SDS011;2854;42.692;23.364;2023-01-10T09:55:58;16.93;;;8.70;;
5662;SDS011;2854;42.692;23.364;2023-01-10T09:58:25;15.30;;;9.30;;
5662;SDS011;2854;42.692;23.364;2023-01-10T10:00:58;22.50;;;10.57;;
5662;SDS011;2854;42.692;23.364;2023-01-10T10:05:55;15.00;;;8.10;;
5662;SDS011;2854;42.692;23.364;2023-01-10T10:08:21;19.53;;;8.87;;
5662;SDS011;2854;42.692;23.364;2023-01-10T10:10:50;19.73;;;9.57;;
5662;SDS011;2854;42.692;23.364;2023-01-10T10:13:20;15.57;;;9.27;;
5662;SDS011;2854;42.692;23.364;2023-01-10T10:21:02;16.97;;;9.23;;
5662;SDS011;2854;42.692;23.364;2023-01-10T10:36:13;25.30;;;11.10;;
5662;SDS011;2854;42.692;23.364;2023-01-10T10:38:40;22.47;;;10.10;;
5662;SDS011;2854;42.692;23.364;2023-01-10T10:41:14;26.33;;;12.53;;
5662;SDS011;2854;42.692;23.364;2023-01-10T10:43:40;26.87;;;14.40;;
5662;SDS011;2854;42.692;23.364;2023-01-10T10:46:11;25.33;;;11.50;;
5662;SDS011;2854;42.692;23.364;2023-01-10T10:48:48;22.00;;;11.70;;
5662;SDS011;2854;42.692;23.364;2023-01-10T10:54:01;36.17;;;12.50;;
5662;SDS011;2854;42.692;23.364;2023-01-10T10:56:26;26.23;;;12.37;;
5662;SDS011;2854;42.692;23.364;2023-01-10T10:58:54;25.87;;;12.37;;
5662;SDS011;2854;42.692;23.364;2023-01-10T11:01:20;20.60;;;12.07;;
5662;SDS011;2854;42.692;23.364;2023-01-10T11:03:56;27.77;;;11.90;;
5662;SDS011;2854;42.692;23.364;2023-01-10T11:06:23;27.90;;;12.53;;
5662;SDS011;2854;42.692;23.364;2023-01-10T11:08:49;17.50;;;10.37;;
5662;SDS011;2854;42.692;23.364;2023-01-10T11:13:58;13.50;;;8.27;;
5662;SDS011;2854;42.692;23.364;2023-01-10T11:19:01;17.80;;;10.00;;
5662;SDS011;2854;42.692;23.364;2023-01-10T11:21:33;19.27;;;10.10;;
5662;SDS011;2854;42.692;23.364;2023-01-10T11:23:58;15.83;;;8.90;;
5662;SDS011;2854;42.692;23.364;2023-01-10T11:28:52;18.57;;;10.03;;
5662;SDS011;2854;42.692;23.364;2023-01-10T11:31:27;26.33;;;11.90;;
5662;SDS011;2854;42.692;23.364;2023-01-10T11:33:53;26.67;;;11.60;;
5662;SDS011;2854;42.692;23.364;2023-01-10T11:36:18;24.40;;;13.10;;
5662;SDS011;2854;42.692;23.364;2023-01-10T11:38:45;25.90;;;12.93;;
5662;SDS011;2854;42.692;23.364;2023-01-10T11:41:24;20.07;;;13.23;;
5662;SDS011;2854;42.692;23.364;2023-01-10T11:43:50;26.50;;;12.23;;
5662;SDS011;2854;42.692;23.364;2023-01-10T11:46:19;18.40;;;11.03;;
5662;SDS011;2854;42.692;23.364;2023-01-10T11:51:18;15.87;;;8.23;;
5662;SDS011;2854;42.692;23.364;2023-01-10T11:53:43;24.73;;;12.50;;
5662;SDS011;2854;42.692;23.364;2023-01-10T11:56:10;18.73;;;9.50;;
5662;SDS011;2854;42.692;23.364;2023-01-10T11:58:35;19.83;;;10.77;;
5662;SDS011;2854;42.692;23.364;2023-01-10T12:01:02;24.50;;;11.50;;
5662;SDS011;2854;42.692;23.364;2023-01-10T12:03:31;23.10;;;12.90;;
5662;SDS011;2854;42.692;23.364;2023-01-10T12:06:07;21.23;;;10.90;;
5662;SDS011;2854;42.692;23.364;2023-01-10T12:08:34;20.77;;;11.07;;
5662;SDS011;2854;42.692;23.364;2023-01-10T12:11:05;12.90;;;8.23;;
5662;SDS011;2854;42.692;23.364;2023-01-10T12:13:42;21.63;;;11.90;;
5662;SDS011;2854;42.692;23.364;2023-01-10T12:16:15;16.67;;;9.30;;
5662;SDS011;2854;42.692;23.364;2023-01-10T12:18:40;29.13;;;12.97;;
5662;SDS011;2854;42.692;23.364;2023-01-10T12:21:06;22.23;;;10.33;;
5662;SDS011;2854;42.692;23.364;2023-01-10T12:23:31;21.40;;;8.37;;
5662;SDS011;2854;42.692;23.364;2023-01-10T12:25:59;16.13;;;10.20;;
5662;SDS011;2854;42.692;23.364;2023-01-10T12:28:26;27.90;;;15.60;;
5662;SDS011;2854;42.692;23.364;2023-01-10T12:30:53;23.73;;;10.40;;
5662;SDS011;2854;42.692;23.364;2023-01-10T12:33:26;24.87;;;11.27;;
5662;SDS011;2854;42.692;23.364;2023-01-10T12:35:56;17.10;;;9.23;;
5662;SDS011;2854;42.692;23.364;2023-01-10T12:38:34;12.67;;;8.03;;
5662;SDS011;2854;42.692;23.364;2023-01-10T12:41:25;12.83;;;8.43;;
5662;SDS011;2854;42.692;23.364;2023-01-10T12:44:12;16.07;;;8.13;;
5662;SDS011;2854;42.692;23.364;2023-01-10T12:46:43;15.37;;;6.80;;
5662;SDS011;2854;42.692;23.364;2023-01-10T12:51:39;11.70;;;7.87;;
5662;SDS011;2854;42.692;23.364;2023-01-10T12:54:10;15.17;;;8.33;;
5662;SDS011;2854;42.692;23.364;2023-01-10T12:56:36;18.67;;;9.50;;
5662;SDS011;2854;42.692;23.364;2023-01-10T13:02:03;14.33;;;6.67;;
5662;SDS011;2854;42.692;23.364;2023-01-10T13:04:29;17.40;;;8.77;;
5662;SDS011;2854;42.692;23.364;2023-01-10T13:06:55;19.70;;;9.10;;
5662;SDS011;2854;42.692;23.364;2023-01-10T13:09:22;13.37;;;8.20;;
5662;SDS011;2854;42.692;23.364;2023-01-10T13:14:13;26.50;;;9.80;;
5662;SDS011;2854;42.692;23.364;2023-01-10T13:16:42;15.47;;;8.43;;
5662;SDS011;2854;42.692;23.364;2023-01-10T13:21:35;11.57;;;8.70;;
5662;SDS011;2854;42.692;23.364;2023-01-10T13:26:26;15.20;;;8.40;;
5662;SDS011;2854;42.692;23.364;2023-01-10T13:33:55;11.63;;;6.23;;
5662;SDS011;2854;42.692;23.364;2023-01-10T13:36:23;13.83;;;8.20;;
5662;SDS011;2854;42.692;23.364;2023-01-10T13:38:58;11.70;;;8.50;;
5662;SDS011;2854;42.692;23.364;2023-01-10T13:42:08;14.00;;;8.83;;
5662;SDS011;2854;42.692;23.364;2023-01-10T13:44:29;13.50;;;8.33;;
5662;SDS011;2854;42.692;23.364;2023-01-10T13:47:30;11.47;;;6.17;;
5662;SDS011;2854;42.692;23.364;2023-01-10T13:49:59;11.60;;;7.03;;
5662;SDS011;2854;42.692;23.364;2023-01-10T13:52:28;12.20;;;7.07;;
5662;SDS011;2854;42.692;23.364;2023-01-10T13:54:55;9.93;;;6.47;;
5662;SDS011;2854;42.692;23.364;2023-01-10T14:00:19;6.53;;;5.50;;
5662;SDS011;2854;42.692;23.364;2023-01-10T14:03:03;8.83;;;5.60;;
5662;SDS011;2854;42.692;23.364;2023-01-10T14:05:28;12.73;;;6.17;;
5662;SDS011;2854;42.692;23.364;2023-01-10T14:07:53;5.80;;;5.20;;
5662;SDS011;2854;42.692;23.364;2023-01-10T14:10:26;6.80;;;5.43;;
5662;SDS011;2854;42.692;23.364;2023-01-10T14:13:25;11.13;;;5.10;;
5662;SDS011;2854;42.692;23.364;2023-01-10T14:15:44;9.33;;;6.00;;
5662;SDS011;2854;42.692;23.364;2023-01-10T14:18:20;7.60;;;5.80;;
5662;SDS011;2854;42.692;23.364;2023-01-10T14:23:41;4.83;;;4.40;;
5662;SDS011;2854;42.692;23.364;2023-01-10T14:26:20;6.93;;;4.83;;
5662;SDS011;2854;42.692;23.364;2023-01-10T14:28:49;5.37;;;4.20;;
5662;SDS011;2854;42.692;23.364;2023-01-10T14:33:41;4.50;;;3.70;;
5662;SDS011;2854;42.692;23.364;2023-01-10T14:36:19;4.30;;;3.90;;
5662;SDS011;2854;42.692;23.364;2023-01-10T14:38:45;3.83;;;3.60;;
5662;SDS011;2854;42.692;23.364;2023-01-10T14:41:14;3.30;;;3.00;;
5662;SDS011;2854;42.692;23.364;2023-01-10T14:43:41;3.67;;;3.37;;
5662;SDS011;2854;42.692;23.364;2023-01-10T14:46:09;3.83;;;2.63;;
5662;SDS011;2854;42.692;23.364;2023-01-10T14:48:40;4.83;;;3.37;;
5662;SDS011;2854;42.692;23.364;2023-01-10T14:53:31;2.50;;;2.40;;
5662;SDS011;2854;42.692;23.364;2023-01-10T14:55:56;2.80;;;2.57;;
5662;SDS011;2854;42.692;23.364;2023-01-10T14:58:23;4.50;;;3.00;;
5662;SDS011;2854;42.692;23.364;2023-01-10T15:00:48;3.47;;;3.20;;
5662;SDS011;2854;42.692;23.364;2023-01-10T15:03:18;11.37;;;6.93;;
5662;SDS011;2854;42.692;23.364;2023-01-10T15:05:44;4.80;;;2.60;;
5662;SDS011;2854;42.692;23.364;2023-01-10T15:08:19;2.40;;;2.20;;
5662;SDS011;2854;42.692;23.364;2023-01-10T15:10:45;4.17;;;2.77;;
5662;SDS011;2854;42.692;23.364;2023-01-10T15:13:12;3.93;;;3.53;;
5662;SDS011;2854;42.692;23.364;2023-01-10T15:15:38;4.50;;;3.57;;
5662;SDS011;2854;42.692;23.364;2023-01-10T15:18:27;2.40;;;2.20;;
5662;SDS011;2854;42.692;23.364;2023-01-10T15:20:49;2.33;;;1.40;;
5662;SDS011;2854;42.692;23.364;2023-01-10T15:23:15;2.60;;;2.40;;
5662;SDS011;2854;42.692;23.364;2023-01-10T15:25:40;2.43;;;2.23;;
5662;SDS011;2854;42.692;23.364;2023-01-10T15:28:15;3.43;;;2.80;;
5662;SDS011;2854;42.692;23.364;2023-01-10T15:30:41;3.60;;;3.20;;
5662;SDS011;2854;42.692;23.364;2023-01-10T15:33:18;3.43;;;3.13;;
5662;SDS011;2854;42.692;23.364;2023-01-10T15:35:46;4.80;;;2.13;;
5662;SDS011;2854;42.692;23.364;2023-01-10T15:38:15;2.30;;;1.90;;
5662;SDS011;2854;42.692;23.364;2023-01-10T15:40:41;3.67;;;2.20;;
5662;SDS011;2854;42.692;23.364;2023-01-10T15:43:11;4.80;;;2.37;;
5662;SDS011;2854;42.692;23.364;2023-01-10T15:45:37;2.00;;;1.90;;
5662;SDS011;2854;42.692;23.364;2023-01-10T15:48:04;1.87;;;1.50;;
5662;SDS011;2854;42.692;23.364;2023-01-10T15:50:35;4.30;;;2.23;;
5662;SDS011;2854;42.692;23.364;2023-01-10T15:53:07;1.20;;;1.13;;
5662;SDS011;2854;42.692;23.364;2023-01-10T15:55:43;1.00;;;1.00;;
5662;SDS011;2854;42.692;23.364;2023-01-10T16:00:42;2.53;;;1.90;;
5662;SDS011;2854;42.692;23.364;2023-01-10T16:03:12;2.47;;;1.50;;
5662;SDS011;2854;42.692;23.364;2023-01-10T16:05:38;1.70;;;1.60;;
5662;SDS011;2854;42.692;23.364;2023-01-10T16:08:03;2.10;;;1.17;;
5662;SDS011;2854;42.692;23.364;2023-01-10T16:10:31;1.67;;;1.57;;
5662;SDS011;2854;42.692;23.364;2023-01-10T16:13:07;1.00;;;1.00;;
5662;SDS011;2854;42.692;23.364;2023-01-10T16:15:52;2.20;;;2.00;;
5662;SDS011;2854;42.692;23.364;2023-01-10T16:18:17;2.97;;;1.70;;
5662;SDS011;2854;42.692;23.364;2023-01-10T16:20:43;2.63;;;2.37;;
5662;SDS011;2854;42.692;23.364;2023-01-10T16:23:12;4.00;;;1.70;;
5662;SDS011;2854;42.692;23.364;2023-01-10T16:25:39;2.30;;;1.30;;
5662;SDS011;2854;42.692;23.364;2023-01-10T16:28:09;5.03;;;3.77;;
5662;SDS011;2854;42.692;23.364;2023-01-10T16:30:35;1.90;;;1.77;;
5662;SDS011;2854;42.692;23.364;2023-01-10T16:33:10;3.83;;;2.03;;